Riviere-Au-Renard, Canada
Current Conditions -  °F | °C
As of 5:00 PM on Monday 24 Nov 2014 (Local Time) from CYGP Reporting Station
Light Rain Light Rain  
Wind Chill: 35°   Ceiling: 1200
Heat Index: 41°   Visibility: 3mi
Dew Point: 37°   Wind: 10mph
Humidity: 87%   Direction: 170°S
Pressure: 29.67"   Gusts: 32mph
Location:  48.98°N, 64.38°W
Report Text: CYGP 242200Z 17009G28KT 120V180 3SM -RA BR SCT005 BKN012 05/03 A2967 RMK SF4SC3 PRESFR SLP049
Loading
Personal Weather Stations






























Interactive Weather Map New forecast layout! Learn more

10-Day Weather Forecast

Advertisements
Track Severe Weather on mobile